Aviation Digital Data Service (ADDS)

Output produced by METARs form (1252 UTC 16 July 2019)
found at http://www.aviationweather.gov/metar/data/
 
KBID 161156Z AUTO 36003KT 10SM CLR 23/16 A3010 RMK AO2 SLP191 6//// 7//// T02280161 10228 20189 53014
KUUU 161153Z AUTO 35003KT 4SM HZ CLR 23/19 A3008 RMK AO2 SLP184 T02280189 10228 20172 51008
KOQU 161250Z 00000KT 10SM SKC 24/16 A3008
KSFZ 161156Z AUTO 00000KT 10SM CLR 21/16 A3009 RMK AO2 SLP134 T02060161 10206 20144 50008
KPVD 161151Z COR 28003KT 10SM FEW050 FEW120 BKN250 22/16 A3008 RMK AO2 SLP186 T02170161 10217 20172 53010
KPVD 161120Z 1612/1712 VRB03KT P6SM BKN250 
     FM161500 20005KT P6SM FEW250 
     FM161800 19010KT P6SM BKN250 
     FM170100 22006KT P6SM SCT100 
     FM170800 22005KT P6SM OVC080
       
KWST 161153Z AUTO 00000KT 10SM CLR 22/18 A3010 RMK AO2 SLP191 T02220183 10222 20167 53014